Phillips, NE (68865)

8:10 AM CDT on August 30, 2016 (GMT -0500)
Central Nebraska Regional | | Change Station

Elev 1857 ft 40.96 °N, 98.31 °W | Updated 17 minutes ago

Overcast
Overcast
67 °F
Feels Like 67 °F
N
4
Wind Variable Wind from ENE

Today
High -- | Low -- °F
--% Chance of Precip.
Yesterday
High -- | Low -- °F
Precip. -- in
Pressure 30.21 in
Visibility 4.0 miles
Clouds Mostly Cloudy 8000 ft
Overcast 11000 ft
Dew Point 66 °F
Humidity 97%
Rainfall 0.00 in
Snow Depth Not available.
6:58 AM 8:07 PM
Waning Crescent, 4% visible
METAR KGRI 301253Z 07003KT 4SM BR BKN080 OVC110 19/19 A3023 RMK AO2 SLP229 T01940189
Pressure 30.21 in
Visibility 4.0 miles
Clouds Mostly Cloudy 8000 ft
Overcast 11000 ft
Dew Point 66 °F
Humidity 97%
Rainfall 0.00 in
Snow Depth Not available.
6:58 AM 8:07 PM
Waning Crescent, 4% visible
METAR KGRI 301253Z 07003KT 4SM BR BKN080 OVC110 19/19 A3023 RMK AO2 SLP229 T01940189

10-Day Weather Forecast

Almanac

Astronomy

Aug. 30, 2016 Rise Set
Actual Time
Civil Twilight
Nautical Twilight
Astronomical Twilight
Moon
Length of Visible Light
Length of Day
Tomorrow will be .
, % of the Moon is Illuminated

Today's Extremes

State Highs State Lows

Community

WunderPhotos

Upload Photos

1,935,828 photos uploaded!

WunderBlog® & News

Nearby

Air Quality

  Air Quality AQ Index Pollutant
Not available.

Snow Depth

Station Depth Elevation

Earthquake Activity

City Distance Mag. Time & Date
Minimum magnitude displayed is 2.5.

Coastal Water Temperatures

Place Temperature

Stations

Nearby Weather Stations

Station Location Temp. Windchill Dew Point Humidity Wind Precip. Elev Updated Type
                   

Watches & Warnings

There are currently no watches in effect.